Time;durP1;ratioP1;P1;durP2;ratioP2;P2;SDS_P1;SDS_P2;PMS_P1;PMS_P2;Temp;Humidity;BMP_temperature;BMP_pressure;BME280_temperature;BME280_humidity;BME280_pressure;Samples;Min_cycle;Max_cycle;Signal;HPM_P1;HPM_P2
2021/01/11 00:00:46;0.00;0.00;0.62;0.00;0.00;0.62;2.60;1.97;;;18.50;27.20;;;;;;2261715;61;20385;-65
2021/01/11 00:03:32;0.00;0.00;0.62;0.00;0.00;0.62;2.00;1.80;;;18.50;27.20;;;;;;2261817;61;20354;-64
2021/01/11 00:06:16;0.00;0.00;0.62;0.00;0.00;0.62;3.53;1.80;;;18.50;27.20;;;;;;2261645;61;20481;-64
2021/01/11 00:09:01;0.00;0.00;0.62;0.00;0.00;0.62;2.57;2.30;;;18.50;27.20;;;;;;2261664;61;20366;-63
2021/01/11 00:11:46;0.00;0.00;0.62;0.00;0.00;0.62;2.20;1.63;;;18.50;27.10;;;;;;2261536;61;20753;-65
2021/01/11 00:14:31;0.00;0.00;0.62;0.00;0.00;0.62;2.00;1.77;;;18.50;27.10;;;;;;2261750;61;20397;-66
2021/01/11 00:17:15;0.00;0.00;0.62;0.00;0.00;0.62;2.80;1.83;;;18.50;27.10;;;;;;2261753;61;20500;-67
2021/01/11 00:20:02;0.00;0.00;0.62;0.00;0.00;0.62;2.00;1.80;;;18.60;27.20;;;;;;2261533;61;20386;-63
2021/01/11 00:22:46;0.00;0.00;0.62;0.00;0.00;0.62;3.10;2.43;;;18.50;27.10;;;;;;2261872;61;20680;-64
2021/01/11 00:25:31;0.00;0.00;0.62;0.00;0.00;0.62;2.13;1.90;;;18.60;27.20;;;;;;2261766;61;20609;-65
2021/01/11 00:28:16;0.00;0.00;0.62;0.00;0.00;0.62;2.33;1.97;;;18.50;27.10;;;;;;2261633;61;20390;-62
2021/01/11 00:31:00;0.00;0.00;0.62;0.00;0.00;0.62;2.77;1.97;;;18.60;27.20;;;;;;2261661;61;20425;-64
2021/01/11 00:33:45;0.00;0.00;0.62;0.00;0.00;0.62;5.70;2.30;;;18.60;27.20;;;;;;2261984;61;20354;-64
2021/01/11 00:36:30;0.00;0.00;0.62;0.00;0.00;0.62;2.53;2.00;;;18.50;27.10;;;;;;2261605;61;20470;-66
2021/01/11 00:39:15;0.00;0.00;0.62;0.00;0.00;0.62;3.27;2.23;;;18.60;27.30;;;;;;2261546;61;20379;-64
2021/01/11 00:42:01;0.00;0.00;0.62;0.00;0.00;0.62;2.20;1.73;;;18.50;27.10;;;;;;2261557;61;20768;-66
2021/01/11 00:44:46;0.00;0.00;0.62;0.00;0.00;0.62;2.13;1.87;;;18.50;27.20;;;;;;2260628;61;20354;-63
2021/01/11 00:47:31;0.00;0.00;0.62;0.00;0.00;0.62;2.73;2.17;;;18.50;27.10;;;;;;2261672;61;20355;-64
2021/01/11 00:50:15;0.00;0.00;0.62;0.00;0.00;0.62;2.53;1.97;;;18.50;27.10;;;;;;2261504;61;20374;-65
2021/01/11 00:53:04;0.00;0.00;0.62;0.00;0.00;0.62;2.33;1.93;;;18.50;27.10;;;;;;2261165;61;20474;-65
2021/01/11 00:55:49;0.00;0.00;0.62;0.00;0.00;0.62;2.40;2.10;;;18.60;27.20;;;;;;2261938;61;20382;-64
2021/01/11 00:58:36;0.00;0.00;0.62;0.00;0.00;0.62;2.87;2.30;;;18.50;27.10;;;;;;2260918;61;20401;-62
2021/01/11 01:01:20;0.00;0.00;0.62;0.00;0.00;0.62;4.13;2.67;;;18.50;27.20;;;;;;2260981;61;20425;-64
2021/01/11 01:04:09;0.00;0.00;0.62;0.00;0.00;0.62;2.70;2.07;;;18.50;27.20;;;;;;2261469;61;20370;-66
2021/01/11 01:07:01;0.00;0.00;0.62;0.00;0.00;0.62;2.17;1.87;;;18.50;27.20;;;;;;2261483;61;20350;-65
2021/01/11 01:09:46;0.00;0.00;0.62;0.00;0.00;0.62;2.20;2.00;;;18.50;27.20;;;;;;2261465;61;20366;-65
2021/01/11 01:12:31;0.00;0.00;0.62;0.00;0.00;0.62;2.83;2.23;;;18.60;27.30;;;;;;2261602;61;20362;-62
2021/01/11 01:15:16;0.00;0.00;0.62;0.00;0.00;0.62;2.33;2.03;;;18.60;27.30;;;;;;2261618;61;20405;-63
2021/01/11 01:18:00;0.00;0.00;0.62;0.00;0.00;0.62;3.00;1.90;;;18.60;27.80;;;;;;2261826;61;20362;-63
2021/01/11 01:20:45;0.00;0.00;0.62;0.00;0.00;0.62;1.97;1.67;;;18.60;27.30;;;;;;2261066;61;20402;-66
2021/01/11 01:23:29;0.00;0.00;0.62;0.00;0.00;0.62;2.43;2.10;;;18.60;27.30;;;;;;2261497;61;20383;-65
2021/01/11 01:26:15;0.00;0.00;0.62;0.00;0.00;0.62;2.57;2.37;;;18.60;27.40;;;;;;2261410;61;20619;-65
2021/01/11 01:28:59;0.00;0.00;0.62;0.00;0.00;0.62;3.33;2.93;;;18.60;27.30;;;;;;2261296;61;20358;-62
2021/01/11 01:31:44;0.00;0.00;0.62;0.00;0.00;0.62;3.80;3.40;;;18.50;27.20;;;;;;2261439;61;20382;-65
2021/01/11 01:34:28;0.00;0.00;0.62;0.00;0.00;0.62;4.70;4.17;;;18.60;27.30;;;;;;2261713;61;20393;-63
2021/01/11 01:37:13;0.00;0.00;0.62;0.00;0.00;0.62;6.20;5.60;;;18.50;27.10;;;;;;2261619;61;20394;-63
2021/01/11 01:39:58;0.00;0.00;0.62;0.00;0.00;0.62;6.40;5.80;;;18.60;27.00;;;;;;2261147;61;20760;-65
2021/01/11 01:42:44;0.00;0.00;0.62;0.00;0.00;0.62;7.53;6.37;;;18.50;26.80;;;;;;2261228;61;20366;-63
2021/01/11 01:45:28;0.00;0.00;0.62;0.00;0.00;0.62;8.13;7.27;;;18.40;26.60;;;;;;2261479;61;20477;-62
2021/01/11 01:48:15;0.00;0.00;0.62;0.00;0.00;0.62;7.80;6.47;;;18.50;26.70;;;;;;2261716;61;20362;-66
2021/01/11 01:50:59;0.00;0.00;0.62;0.00;0.00;0.62;8.80;7.40;;;18.40;26.60;;;;;;2261281;61;20645;-65
2021/01/11 01:53:45;0.00;0.00;0.62;0.00;0.00;0.62;7.20;6.50;;;18.40;26.50;;;;;;2261489;61;20722;-66
2021/01/11 01:56:30;0.00;0.00;0.62;0.00;0.00;0.62;7.37;6.60;;;18.30;26.40;;;;;;2261683;61;20425;-66
2021/01/11 01:59:18;0.00;0.00;0.62;0.00;0.00;0.62;8.50;7.60;;;18.20;26.40;;;;;;2261019;61;20370;-63
2021/01/11 02:02:04;0.00;0.00;0.62;0.00;0.00;0.62;8.33;7.53;;;18.20;26.30;;;;;;2261125;61;20374;-63
2021/01/11 02:04:50;0.00;0.00;0.62;0.00;0.00;0.62;8.07;7.27;;;18.20;26.40;;;;;;2261245;61;20537;-65
2021/01/11 02:07:45;0.00;0.00;0.62;0.00;0.00;0.62;8.83;7.93;;;18.10;26.30;;;;;;2261842;61;20430;-63
2021/01/11 02:10:52;0.00;0.00;0.62;0.00;0.00;0.62;8.40;7.60;;;18.10;26.30;;;;;;2261797;61;20385;-66
2021/01/11 02:14:07;0.00;0.00;0.62;0.00;0.00;0.62;9.70;8.10;;;18.10;26.40;;;;;;2261826;61;20354;-65
2021/01/11 02:17:04;0.00;0.00;0.62;0.00;0.00;0.62;10.33;8.37;;;18.00;26.30;;;;;;2261942;61;20385;-66
2021/01/11 02:20:37;0.00;0.00;0.62;0.00;0.00;0.62;8.80;7.37;;;18.00;26.30;;;;;;2261495;61;20358;-64
2021/01/11 02:24:30;0.00;0.00;0.62;0.00;0.00;0.62;9.77;8.60;;;17.90;26.20;;;;;;2261680;61;20358;-65
2021/01/11 02:27:34;0.00;0.00;0.62;0.00;0.00;0.62;9.17;7.17;;;17.90;26.20;;;;;;2250797;61;20409;-64
2021/01/11 02:30:27;0.00;0.00;0.62;0.00;0.00;0.62;8.90;8.10;;;17.80;26.20;;;;;;2261397;61;20390;-65
2021/01/11 02:33:15;0.00;0.00;0.62;0.00;0.00;0.62;9.00;8.10;;;17.80;26.20;;;;;;2261977;61;20453;-66
2021/01/11 02:36:04;0.00;0.00;0.62;0.00;0.00;0.62;9.63;8.63;;;17.80;26.20;;;;;;2261617;61;20627;-64
2021/01/11 02:38:49;0.00;0.00;0.62;0.00;0.00;0.62;10.53;8.60;;;17.70;26.10;;;;;;2261427;61;20774;-63
2021/01/11 02:41:34;0.00;0.00;0.62;0.00;0.00;0.62;9.10;8.20;;;17.70;26.00;;;;;;2261447;61;20436;-65
2021/01/11 02:44:18;0.00;0.00;0.62;0.00;0.00;0.62;11.60;10.40;;;17.70;26.00;;;;;;2261636;61;20354;-64
2021/01/11 02:47:04;0.00;0.00;0.62;0.00;0.00;0.62;10.17;9.23;;;17.60;26.00;;;;;;2262150;61;20358;-62
2021/01/11 02:49:54;0.00;0.00;0.62;0.00;0.00;0.62;11.83;9.83;;;17.60;25.90;;;;;;2261460;61;20347;-62
2021/01/11 02:52:49;0.00;0.00;0.62;0.00;0.00;0.62;12.40;10.10;;;17.60;26.00;;;;;;2261509;61;20359;-66
2021/01/11 02:55:45;0.00;0.00;0.62;0.00;0.00;0.62;9.90;8.60;;;17.50;25.90;;;;;;2261895;61;20401;-66
2021/01/11 02:59:02;0.00;0.00;0.62;0.00;0.00;0.62;11.33;8.70;;;17.50;26.00;;;;;;2261718;61;20355;-66
2021/01/11 03:01:53;0.00;0.00;0.62;0.00;0.00;0.62;11.43;9.00;;;17.40;26.00;;;;;;2261461;61;20378;-66
2021/01/11 03:04:39;0.00;0.00;0.62;0.00;0.00;0.62;11.37;9.40;;;17.40;26.00;;;;;;2261527;61;20624;-64
2021/01/11 03:07:24;0.00;0.00;0.62;0.00;0.00;0.62;9.30;8.30;;;17.40;26.00;;;;;;2261538;61;20713;-66
2021/01/11 03:10:10;0.00;0.00;0.62;0.00;0.00;0.62;8.50;7.70;;;17.40;26.00;;;;;;2261929;61;20428;-66
2021/01/11 03:12:54;0.00;0.00;0.62;0.00;0.00;0.62;9.37;8.40;;;17.40;26.10;;;;;;2261316;61;20359;-67
2021/01/11 03:15:39;0.00;0.00;0.62;0.00;0.00;0.62;9.60;8.63;;;17.40;26.10;;;;;;2261801;61;20381;-68
2021/01/11 03:18:23;0.00;0.00;0.62;0.00;0.00;0.62;9.93;8.87;;;17.30;26.00;;;;;;2261559;61;20359;-65
2021/01/11 03:21:09;0.00;0.00;0.62;0.00;0.00;0.62;8.80;7.90;;;17.30;26.00;;;;;;2261577;61;20738;-64
2021/01/11 03:23:53;0.00;0.00;0.62;0.00;0.00;0.62;10.73;9.63;;;17.30;26.00;;;;;;2261984;61;20365;-66
2021/01/11 03:26:38;0.00;0.00;0.62;0.00;0.00;0.62;9.40;8.50;;;17.30;26.00;;;;;;2261612;61;20366;-62
2021/01/11 03:29:22;0.00;0.00;0.62;0.00;0.00;0.62;8.27;7.50;;;17.30;26.00;;;;;;2261567;61;20371;-63
2021/01/11 03:32:07;0.00;0.00;0.62;0.00;0.00;0.62;10.30;9.20;;;17.20;25.90;;;;;;2261828;61;20390;-62
2021/01/11 03:34:52;0.00;0.00;0.62;0.00;0.00;0.62;10.43;8.80;;;17.20;25.90;;;;;;2261630;61;20366;-66
2021/01/11 03:37:37;0.00;0.00;0.62;0.00;0.00;0.62;10.43;9.27;;;17.20;25.90;;;;;;2261615;61;20424;-66
2021/01/11 03:40:22;0.00;0.00;0.62;0.00;0.00;0.62;9.83;8.83;;;17.20;25.90;;;;;;2261406;61;20482;-65
2021/01/11 03:43:06;0.00;0.00;0.62;0.00;0.00;0.62;12.07;8.20;;;17.20;26.00;;;;;;2261863;61;20386;-65
2021/01/11 03:45:51;0.00;0.00;0.62;0.00;0.00;0.62;9.93;8.93;;;17.10;25.90;;;;;;2261830;61;20394;-64
2021/01/11 03:48:35;0.00;0.00;0.62;0.00;0.00;0.62;9.93;8.80;;;17.10;25.80;;;;;;2261360;61;20363;-65
2021/01/11 03:51:20;0.00;0.00;0.62;0.00;0.00;0.62;10.60;9.03;;;17.10;25.80;;;;;;2261530;61;20437;-64
2021/01/11 03:54:06;0.00;0.00;0.62;0.00;0.00;0.62;12.60;9.67;;;17.10;25.80;;;;;;2258611;61;20363;-63
2021/01/11 03:56:52;0.00;0.00;0.62;0.00;0.00;0.62;11.20;9.63;;;17.10;25.80;;;;;;2261619;61;20390;-65
2021/01/11 03:59:37;0.00;0.00;0.62;0.00;0.00;0.62;10.90;8.23;;;17.10;25.80;;;;;;2261309;61;20397;-63
2021/01/11 04:02:21;0.00;0.00;0.62;0.00;0.00;0.62;10.60;8.73;;;17.10;25.80;;;;;;2261664;61;20576;-63
2021/01/11 04:05:08;0.00;0.00;0.62;0.00;0.00;0.62;8.87;7.93;;;17.00;25.70;;;;;;2262034;61;20435;-65
2021/01/11 04:07:53;0.00;0.00;0.62;0.00;0.00;0.62;9.40;8.17;;;17.00;25.70;;;;;;2261663;61;20748;-65
2021/01/11 04:10:39;0.00;0.00;0.62;0.00;0.00;0.62;9.17;7.87;;;17.00;25.80;;;;;;2261373;61;20410;-65
2021/01/11 04:13:24;0.00;0.00;0.62;0.00;0.00;0.62;10.40;8.50;;;16.90;25.70;;;;;;2261578;61;20398;-64
2021/01/11 04:16:09;0.00;0.00;0.62;0.00;0.00;0.62;11.73;8.67;;;16.90;25.70;;;;;;2261712;61;20462;-66
2021/01/11 04:18:55;0.00;0.00;0.62;0.00;0.00;0.62;8.43;7.60;;;16.90;25.70;;;;;;2261618;61;20357;-64
2021/01/11 04:21:41;0.00;0.00;0.62;0.00;0.00;0.62;8.60;7.70;;;16.90;25.70;;;;;;2261125;61;20792;-64
2021/01/11 04:24:26;0.00;0.00;0.62;0.00;0.00;0.62;9.70;7.60;;;16.80;25.70;;;;;;2261960;61;20575;-63
2021/01/11 04:27:11;0.00;0.00;0.62;0.00;0.00;0.62;8.73;7.93;;;16.80;25.70;;;;;;2261773;61;20390;-65
2021/01/11 04:29:55;0.00;0.00;0.62;0.00;0.00;0.62;9.93;8.37;;;16.80;25.70;;;;;;2261248;61;20611;-65
2021/01/11 04:32:40;0.00;0.00;0.62;0.00;0.00;0.62;9.23;8.17;;;16.80;25.70;;;;;;2261389;61;20362;-65
2021/01/11 04:35:27;0.00;0.00;0.62;0.00;0.00;0.62;9.27;7.80;;;16.70;25.70;;;;;;2261316;61;20362;-65
2021/01/11 04:38:12;0.00;0.00;0.62;0.00;0.00;0.62;8.63;7.73;;;16.80;25.70;;;;;;2261718;61;20394;-65
2021/01/11 04:41:01;0.00;0.00;0.62;0.00;0.00;0.62;10.40;8.37;;;16.70;25.60;;;;;;2261343;61;20603;-64
2021/01/11 04:43:50;0.00;0.00;0.62;0.00;0.00;0.62;10.93;9.20;;;16.70;25.70;;;;;;2261394;61;20381;-64
2021/01/11 04:46:35;0.00;0.00;0.62;0.00;0.00;0.62;10.90;8.53;;;16.70;25.70;;;;;;2261714;61;20429;-67
2021/01/11 04:49:20;0.00;0.00;0.62;0.00;0.00;0.62;9.97;8.97;;;16.60;25.60;;;;;;2261337;61;20354;-64
2021/01/11 04:52:07;0.00;0.00;0.62;0.00;0.00;0.62;9.90;8.20;;;16.60;25.60;;;;;;2261361;61;20361;-64
2021/01/11 04:54:56;0.00;0.00;0.62;0.00;0.00;0.62;10.37;8.20;;;16.60;25.60;;;;;;2261476;61;20406;-64
2021/01/11 04:57:51;0.00;0.00;0.62;0.00;0.00;0.62;10.30;8.57;;;16.60;25.60;;;;;;2261174;61;20773;-62
2021/01/11 05:00:39;0.00;0.00;0.62;0.00;0.00;0.62;10.40;7.73;;;16.50;26.10;;;;;;2261329;61;20383;-67
2021/01/11 05:03:24;0.00;0.00;0.62;0.00;0.00;0.62;9.73;8.40;;;16.50;26.10;;;;;;2261358;61;20389;-65
2021/01/11 05:06:09;0.00;0.00;0.62;0.00;0.00;0.62;9.10;8.00;;;16.50;26.10;;;;;;2261135;61;20366;-66
2021/01/11 05:09:04;0.00;0.00;0.62;0.00;0.00;0.62;9.13;7.70;;;16.50;25.60;;;;;;2261570;61;20282;-64
2021/01/11 05:11:49;0.00;0.00;0.62;0.00;0.00;0.62;7.57;6.37;;;16.40;25.50;;;;;;2261416;61;20390;-63
2021/01/11 05:14:34;0.00;0.00;0.62;0.00;0.00;0.62;10.07;7.07;;;16.40;25.60;;;;;;2261651;61;20374;-65
2021/01/11 05:17:22;0.00;0.00;0.62;0.00;0.00;0.62;6.90;5.70;;;16.40;25.60;;;;;;2261350;61;20394;-67
2021/01/11 05:20:08;0.00;0.00;0.62;0.00;0.00;0.62;7.97;6.20;;;16.40;25.70;;;;;;2260872;61;20758;-66
2021/01/11 05:23:11;0.00;0.00;0.62;0.00;0.00;0.62;8.07;6.70;;;16.40;25.70;;;;;;2261770;61;20424;-67
2021/01/11 05:25:57;0.00;0.00;0.62;0.00;0.00;0.62;9.77;7.27;;;16.40;25.70;;;;;;2260887;61;20402;-66
2021/01/11 05:28:42;0.00;0.00;0.62;0.00;0.00;0.62;8.03;6.47;;;16.40;25.70;;;;;;2261150;61;20362;-65
2021/01/11 05:31:50;0.00;0.00;0.62;0.00;0.00;0.62;7.57;6.47;;;16.40;25.70;;;;;;2261210;61;20386;-67
2021/01/11 05:34:46;0.00;0.00;0.62;0.00;0.00;0.62;7.27;6.57;;;16.40;25.80;;;;;;2261113;61;20786;-64
2021/01/11 05:37:33;0.00;0.00;0.62;0.00;0.00;0.62;7.80;6.53;;;16.40;25.80;;;;;;2258433;61;20417;-63
2021/01/11 05:40:20;0.00;0.00;0.62;0.00;0.00;0.62;7.80;7.00;;;16.40;25.70;;;;;;2260628;61;20630;-66
2021/01/11 05:43:04;0.00;0.00;0.62;0.00;0.00;0.62;6.17;5.57;;;16.40;25.80;;;;;;2261430;61;20622;-65
2021/01/11 05:45:49;0.00;0.00;0.62;0.00;0.00;0.62;6.00;5.33;;;16.40;25.80;;;;;;2261817;61;20470;-69
2021/01/11 05:48:34;0.00;0.00;0.62;0.00;0.00;0.62;7.97;5.30;;;16.30;25.80;;;;;;2261329;61;20382;-72
2021/01/11 05:51:24;0.00;0.00;0.62;0.00;0.00;0.62;5.43;4.43;;;16.40;25.90;;;;;;2261316;61;20386;-68
2021/01/11 05:54:26;0.00;0.00;0.62;0.00;0.00;0.62;4.43;4.00;;;16.40;25.90;;;;;;2261181;61;20801;-68
2021/01/11 05:57:10;0.00;0.00;0.62;0.00;0.00;0.62;5.93;4.70;;;16.40;25.90;;;;;;2261153;61;20738;-70
2021/01/11 05:59:55;0.00;0.00;0.62;0.00;0.00;0.62;4.90;4.17;;;16.40;26.00;;;;;;2261339;61;20402;-68
2021/01/11 06:02:40;0.00;0.00;0.62;0.00;0.00;0.62;4.63;4.13;;;16.40;26.00;;;;;;2261044;61;20386;-70
2021/01/11 06:05:26;0.00;0.00;0.62;0.00;0.00;0.62;4.70;3.50;;;16.40;26.10;;;;;;2261133;61;20409;-64
2021/01/11 06:08:14;0.00;0.00;0.62;0.00;0.00;0.62;3.33;3.03;;;16.50;26.10;;;;;;2261435;61;20354;-68
2021/01/11 06:11:00;0.00;0.00;0.62;0.00;0.00;0.62;4.27;3.03;;;16.50;26.10;;;;;;2261445;61;20411;-68
2021/01/11 06:13:48;0.00;0.00;0.62;0.00;0.00;0.62;5.00;3.30;;;16.50;26.20;;;;;;2261434;61;20363;-67
2021/01/11 06:16:33;0.00;0.00;0.62;0.00;0.00;0.62;4.70;3.33;;;16.60;26.30;;;;;;2261150;61;20424;-65
2021/01/11 06:19:18;0.00;0.00;0.62;0.00;0.00;0.62;4.50;3.33;;;16.60;26.30;;;;;;2260975;61;20367;-67
2021/01/11 06:22:03;0.00;0.00;0.62;0.00;0.00;0.62;3.43;2.63;;;16.60;26.30;;;;;;2261185;61;20619;-66
2021/01/11 06:24:48;0.00;0.00;0.62;0.00;0.00;0.62;3.80;3.00;;;16.60;26.30;;;;;;2261076;61;20579;-66
2021/01/11 06:27:33;0.00;0.00;0.62;0.00;0.00;0.62;3.30;2.67;;;16.70;26.30;;;;;;2261316;61;20606;-67
2021/01/11 06:30:33;0.00;0.00;0.62;0.00;0.00;0.62;3.47;2.73;;;16.70;26.30;;;;;;2261085;61;20413;-65
2021/01/11 06:33:27;0.00;0.00;0.62;0.00;0.00;0.62;3.43;2.70;;;16.70;26.30;;;;;;2261441;61;20427;-64
2021/01/11 06:36:30;0.00;0.00;0.62;0.00;0.00;0.62;2.90;2.60;;;16.70;26.30;;;;;;2261280;61;20433;-65
2021/01/11 06:39:14;0.00;0.00;0.62;0.00;0.00;0.62;3.60;2.40;;;16.70;26.30;;;;;;2260575;61;20404;-66
2021/01/11 06:42:11;0.00;0.00;0.62;0.00;0.00;0.62;3.43;2.60;;;16.80;26.40;;;;;;2260996;61;20417;-64
2021/01/11 06:44:55;0.00;0.00;0.62;0.00;0.00;0.62;4.30;2.73;;;16.80;26.40;;;;;;2261226;61;20359;-64
2021/01/11 06:47:41;0.00;0.00;0.62;0.00;0.00;0.62;3.17;2.13;;;16.80;26.40;;;;;;2261207;61;20432;-66
2021/01/11 06:50:27;0.00;0.00;0.62;0.00;0.00;0.62;2.97;2.53;;;16.80;26.90;;;;;;2261206;61;20386;-68
2021/01/11 06:53:12;0.00;0.00;0.62;0.00;0.00;0.62;4.17;3.00;;;16.90;26.40;;;;;;2261798;61;20346;-64
2021/01/11 06:56:09;0.00;0.00;0.62;0.00;0.00;0.62;2.93;2.57;;;16.80;26.30;;;;;;2261809;61;20707;-66
2021/01/11 06:59:06;0.00;0.00;0.62;0.00;0.00;0.62;2.50;1.93;;;16.90;26.40;;;;;;2261822;61;20393;-66
2021/01/11 07:01:50;0.00;0.00;0.62;0.00;0.00;0.62;3.03;2.43;;;16.90;26.40;;;;;;2262195;61;20402;-65
2021/01/11 07:04:38;0.00;0.00;0.62;0.00;0.00;0.62;3.00;2.40;;;16.90;26.30;;;;;;2262674;61;20461;-64
2021/01/11 07:07:25;0.00;0.00;0.62;0.00;0.00;0.62;3.00;2.00;;;16.90;26.30;;;;;;2262551;61;20390;-66
2021/01/11 07:10:10;0.00;0.00;0.62;0.00;0.00;0.62;2.23;1.97;;;16.90;26.30;;;;;;2262108;61;20382;-64
2021/01/11 07:13:28;0.00;0.00;0.62;0.00;0.00;0.62;2.90;2.00;;;16.90;26.30;;;;;;2261974;61;20426;-63
2021/01/11 07:16:16;0.00;0.00;0.62;0.00;0.00;0.62;2.70;2.07;;;16.90;26.30;;;;;;2261623;61;20422;-64
2021/01/11 07:19:01;0.00;0.00;0.62;0.00;0.00;0.62;2.90;2.10;;;17.00;26.30;;;;;;2261339;61;20370;-65
2021/01/11 07:21:47;0.00;0.00;0.62;0.00;0.00;0.62;2.60;2.27;;;17.00;26.30;;;;;;2262051;61;20382;-63
2021/01/11 07:24:32;0.00;0.00;0.62;0.00;0.00;0.62;2.27;2.03;;;17.00;26.30;;;;;;2261629;61;20367;-64
2021/01/11 07:27:18;0.00;0.00;0.62;0.00;0.00;0.62;2.17;1.70;;;17.00;26.30;;;;;;2261690;61;20405;-66
2021/01/11 07:30:05;0.00;0.00;0.62;0.00;0.00;0.62;2.07;1.87;;;17.00;26.30;;;;;;2261514;61;20813;-64
2021/01/11 07:32:50;0.00;0.00;0.62;0.00;0.00;0.62;2.20;1.80;;;17.00;26.30;;;;;;2261355;61;20617;-66
2021/01/11 07:35:38;0.00;0.00;0.62;0.00;0.00;0.62;2.23;1.87;;;17.00;26.30;;;;;;2261952;61;20777;-64
2021/01/11 07:38:23;0.00;0.00;0.62;0.00;0.00;0.62;2.43;1.67;;;17.00;26.30;;;;;;2261688;61;20382;-65
2021/01/11 07:41:08;0.00;0.00;0.62;0.00;0.00;0.62;2.57;1.90;;;17.00;26.30;;;;;;2261256;61;20502;-66
2021/01/11 07:44:09;0.00;0.00;0.62;0.00;0.00;0.62;2.40;1.80;;;17.00;26.30;;;;;;2262027;61;20623;-64
2021/01/11 07:47:00;0.00;0.00;0.62;0.00;0.00;0.62;2.27;1.90;;;17.00;26.30;;;;;;2261606;61;20370;-66
2021/01/11 07:49:51;0.00;0.00;0.62;0.00;0.00;0.62;2.13;1.93;;;17.00;26.20;;;;;;2261479;61;20359;-64
2021/01/11 07:52:36;0.00;0.00;0.62;0.00;0.00;0.62;2.47;1.93;;;17.10;26.30;;;;;;2261620;61;20370;-68
2021/01/11 07:55:27;0.00;0.00;0.62;0.00;0.00;0.62;2.70;2.17;;;17.10;26.30;;;;;;2261491;61;20458;-66
2021/01/11 07:58:12;0.00;0.00;0.62;0.00;0.00;0.62;2.63;1.80;;;17.10;26.30;;;;;;2260905;61;20382;-66
2021/01/11 08:01:02;0.00;0.00;0.62;0.00;0.00;0.62;2.60;2.30;;;17.10;26.30;;;;;;2260953;61;20381;-66
2021/01/11 08:03:47;0.00;0.00;0.62;0.00;0.00;0.62;2.30;1.63;;;17.10;26.30;;;;;;2261031;61;20427;-63
2021/01/11 08:06:50;0.00;0.00;0.62;0.00;0.00;0.62;2.23;1.80;;;17.10;26.30;;;;;;2261497;61;20370;-66
2021/01/11 08:09:36;0.00;0.00;0.62;0.00;0.00;0.62;2.03;1.57;;;17.10;26.30;;;;;;2261227;61;20445;-65
2021/01/11 08:12:21;0.00;0.00;0.62;0.00;0.00;0.62;2.20;1.87;;;17.10;26.30;;;;;;2261372;61;20454;-66
2021/01/11 08:15:07;0.00;0.00;0.62;0.00;0.00;0.62;2.00;1.80;;;17.10;26.30;;;;;;2261304;61;20757;-63
2021/01/11 08:17:52;0.00;0.00;0.62;0.00;0.00;0.62;2.50;2.00;;;17.10;26.30;;;;;;2261157;61;20386;-63
2021/01/11 08:20:37;0.00;0.00;0.62;0.00;0.00;0.62;3.37;2.27;;;17.10;26.20;;;;;;2260679;61;20417;-65
2021/01/11 08:23:22;0.00;0.00;0.62;0.00;0.00;0.62;2.30;2.03;;;17.10;26.20;;;;;;2261196;61;20366;-63
2021/01/11 08:26:10;0.00;0.00;0.62;0.00;0.00;0.62;3.13;1.70;;;17.10;26.20;;;;;;2261140;61;20734;-66
2021/01/11 08:28:57;0.00;0.00;0.62;0.00;0.00;0.62;3.00;2.33;;;17.10;26.80;;;;;;2261293;61;20366;-64
2021/01/11 08:31:43;0.00;0.00;0.62;0.00;0.00;0.62;1.90;1.70;;;17.10;26.20;;;;;;2261529;61;20382;-63
2021/01/11 08:34:29;0.00;0.00;0.62;0.00;0.00;0.62;2.60;1.77;;;17.10;26.20;;;;;;2261611;61;20614;-67
2021/01/11 08:37:32;0.00;0.00;0.62;0.00;0.00;0.62;2.43;2.00;;;17.20;26.30;;;;;;2261131;61;20399;-65
2021/01/11 08:40:27;0.00;0.00;0.62;0.00;0.00;0.62;2.70;2.10;;;17.10;26.20;;;;;;2260795;61;20610;-63
2021/01/11 08:43:13;0.00;0.00;0.62;0.00;0.00;0.62;2.50;1.60;;;17.20;26.30;;;;;;2261400;61;20481;-64
2021/01/11 08:45:58;0.00;0.00;0.62;0.00;0.00;0.62;2.50;2.03;;;17.20;26.80;;;;;;2261082;61;20761;-65
2021/01/11 08:48:43;0.00;0.00;0.62;0.00;0.00;0.62;2.10;1.77;;;17.20;26.30;;;;;;2260951;61;20354;-66
2021/01/11 08:51:27;0.00;0.00;0.62;0.00;0.00;0.62;1.80;1.50;;;17.20;26.30;;;;;;2261064;61;20433;-66
2021/01/11 08:54:25;0.00;0.00;0.62;0.00;0.00;0.62;3.30;2.27;;;17.20;26.30;;;;;;2261011;61;20405;-65
2021/01/11 08:57:13;0.00;0.00;0.62;0.00;0.00;0.62;2.40;2.17;;;17.20;26.30;;;;;;2261274;61;20394;-65
2021/01/11 08:59:58;0.00;0.00;0.62;0.00;0.00;0.62;3.10;2.20;;;17.20;26.30;;;;;;2260866;61;20386;-64
2021/01/11 09:02:46;0.00;0.00;0.62;0.00;0.00;0.62;2.53;1.97;;;17.20;26.30;;;;;;2260912;61;20691;-64
2021/01/11 09:05:36;0.00;0.00;0.62;0.00;0.00;0.62;2.63;1.80;;;17.20;26.30;;;;;;2260969;61;20378;-66
2021/01/11 09:08:22;0.00;0.00;0.62;0.00;0.00;0.62;2.30;1.70;;;17.20;26.30;;;;;;2261225;61;20359;-63
2021/01/11 09:11:09;0.00;0.00;0.62;0.00;0.00;0.62;2.10;1.90;;;17.20;26.30;;;;;;2260903;61;20381;-64
2021/01/11 09:14:06;0.00;0.00;0.62;0.00;0.00;0.62;2.47;2.00;;;17.20;26.30;;;;;;2260978;61;20366;-64
2021/01/11 09:16:58;0.00;0.00;0.62;0.00;0.00;0.62;2.23;1.80;;;17.20;26.80;;;;;;2260933;61;20591;-66
2021/01/11 09:19:42;0.00;0.00;0.62;0.00;0.00;0.62;2.60;1.80;;;17.20;26.30;;;;;;2261218;61;20427;-63
2021/01/11 09:22:34;0.00;0.00;0.62;0.00;0.00;0.62;2.20;1.97;;;17.20;26.20;;;;;;2260923;61;20409;-67
2021/01/11 09:25:18;0.00;0.00;0.62;0.00;0.00;0.62;2.07;1.63;;;17.20;26.30;;;;;;2260896;61;20429;-67
2021/01/11 09:28:04;0.00;0.00;0.62;0.00;0.00;0.62;3.17;2.00;;;17.20;26.20;;;;;;2261270;61;20359;-65
2021/01/11 09:30:52;0.00;0.00;0.62;0.00;0.00;0.62;2.33;1.77;;;17.20;26.20;;;;;;2261080;61;20397;-66
2021/01/11 09:33:37;0.00;0.00;0.62;0.00;0.00;0.62;3.10;1.83;;;17.20;26.20;;;;;;2261311;61;20588;-69
2021/01/11 09:36:22;0.00;0.00;0.62;0.00;0.00;0.62;9.93;3.30;;;17.20;26.20;;;;;;2260980;61;20394;-66
2021/01/11 09:39:09;0.00;0.00;0.62;0.00;0.00;0.62;3.87;1.77;;;17.20;26.20;;;;;;2260876;61;20426;-64
2021/01/11 09:41:56;0.00;0.00;0.62;0.00;0.00;0.62;3.10;2.37;;;17.20;26.20;;;;;;2261129;61;20600;-63
2021/01/11 09:44:42;0.00;0.00;0.62;0.00;0.00;0.62;2.70;1.97;;;17.20;26.20;;;;;;2261051;61;20362;-64
2021/01/11 09:47:28;0.00;0.00;0.62;0.00;0.00;0.62;3.30;2.03;;;17.20;26.20;;;;;;2261086;61;20397;-66
2021/01/11 09:50:15;0.00;0.00;0.62;0.00;0.00;0.62;2.80;2.23;;;17.20;26.30;;;;;;2261008;61;20385;-66
2021/01/11 09:53:01;0.00;0.00;0.62;0.00;0.00;0.62;2.40;1.97;;;17.20;26.40;;;;;;2260976;61;20366;-65
2021/01/11 09:55:46;0.00;0.00;0.62;0.00;0.00;0.62;3.47;2.17;;;17.30;27.00;;;;;;2261223;61;20730;-66
2021/01/11 09:58:30;0.00;0.00;0.62;0.00;0.00;0.62;2.20;1.87;;;17.30;26.50;;;;;;2260900;61;20427;-66
2021/01/11 10:01:15;0.00;0.00;0.62;0.00;0.00;0.62;2.07;1.80;;;17.30;26.50;;;;;;2260517;61;20382;-66
2021/01/11 10:04:00;0.00;0.00;0.62;0.00;0.00;0.62;3.40;2.13;;;17.30;26.60;;;;;;2261228;61;20358;-68
2021/01/11 10:06:46;0.00;0.00;0.62;0.00;0.00;0.62;2.50;2.00;;;17.30;27.00;;;;;;2261001;61;20366;-68
2021/01/11 10:09:31;0.00;0.00;0.62;0.00;0.00;0.62;2.20;1.80;;;17.30;26.60;;;;;;2260929;61;20722;-64
2021/01/11 10:12:16;0.00;0.00;0.62;0.00;0.00;0.62;2.70;2.20;;;17.40;26.70;;;;;;2261165;61;20378;-65
2021/01/11 10:15:00;0.00;0.00;0.62;0.00;0.00;0.62;2.53;1.80;;;17.40;26.70;;;;;;2261201;61;20474;-66
2021/01/11 10:17:45;0.00;0.00;0.62;0.00;0.00;0.62;3.23;2.00;;;17.40;26.70;;;;;;2261091;61;20426;-63
2021/01/11 10:20:30;0.00;0.00;0.62;0.00;0.00;0.62;2.87;2.20;;;17.40;26.60;;;;;;2260608;61;20390;-65
2021/01/11 10:23:15;0.00;0.00;0.62;0.00;0.00;0.62;2.70;2.50;;;17.40;26.60;;;;;;2261047;61;20367;-63
2021/01/11 10:26:00;0.00;0.00;0.62;0.00;0.00;0.62;2.33;2.03;;;17.40;26.60;;;;;;2261238;61;20374;-66
2021/01/11 10:28:45;0.00;0.00;0.62;0.00;0.00;0.62;4.10;2.80;;;17.40;26.70;;;;;;2261538;61;20377;-65
2021/01/11 10:31:29;0.00;0.00;0.62;0.00;0.00;0.62;1.93;1.53;;;17.40;26.70;;;;;;2261295;61;20390;-66
2021/01/11 10:34:18;0.00;0.00;0.62;0.00;0.00;0.62;2.80;2.20;;;17.40;26.70;;;;;;2261754;61;20618;-65
2021/01/11 10:37:03;0.00;0.00;0.62;0.00;0.00;0.62;2.47;1.63;;;17.50;27.30;;;;;;2261643;61;20382;-65
2021/01/11 10:39:48;0.00;0.00;0.62;0.00;0.00;0.62;3.20;2.03;;;17.50;26.80;;;;;;2261273;61;20624;-66
2021/01/11 10:42:33;0.00;0.00;0.62;0.00;0.00;0.62;2.20;2.00;;;17.50;26.80;;;;;;2261068;61;20630;-63
2021/01/11 10:45:17;0.00;0.00;0.62;0.00;0.00;0.62;2.70;2.30;;;17.50;26.80;;;;;;2261643;61;20401;-62
2021/01/11 10:48:02;0.00;0.00;0.62;0.00;0.00;0.62;3.00;2.20;;;17.50;26.80;;;;;;2262036;61;20375;-63
2021/01/11 10:50:47;0.00;0.00;0.62;0.00;0.00;0.62;2.53;1.70;;;17.50;26.80;;;;;;2261597;61;20449;-64
2021/01/11 10:53:32;0.00;0.00;0.62;0.00;0.00;0.62;2.47;1.80;;;17.50;26.80;;;;;;2261027;61;20756;-63
2021/01/11 10:56:18;0.00;0.00;0.62;0.00;0.00;0.62;2.40;1.90;;;17.50;26.80;;;;;;2261866;61;20366;-65
2021/01/11 10:59:03;0.00;0.00;0.62;0.00;0.00;0.62;3.03;2.10;;;17.60;26.80;;;;;;2261466;61;20370;-65
2021/01/11 11:01:49;0.00;0.00;0.62;0.00;0.00;0.62;2.17;1.90;;;17.60;26.80;;;;;;2261382;61;20415;-65